createdAt,value
2018-05-04T00:01:05.752Z,10.70
2018-05-04T00:03:35.303Z,10.70
2018-05-04T00:06:04.263Z,10.60
2018-05-04T00:08:38.413Z,10.70
2018-05-04T00:11:07.505Z,10.70
2018-05-04T00:13:43.358Z,10.70
2018-05-04T00:16:12.381Z,10.60
2018-05-04T00:18:42.800Z,10.60
2018-05-04T00:21:11.610Z,10.60
2018-05-04T00:23:45.582Z,10.60
2018-05-04T00:26:15.288Z,10.60
2018-05-04T00:28:47.617Z,10.50
2018-05-04T00:31:16.693Z,10.50
2018-05-04T00:33:53.567Z,10.50
2018-05-04T00:36:23.157Z,10.40
2018-05-04T00:38:53.106Z,10.40
2018-05-04T00:41:21.825Z,10.40
2018-05-04T00:43:56.228Z,10.40
2018-05-04T00:46:25.119Z,10.40
2018-05-04T00:49:01.289Z,10.40
2018-05-04T00:51:30.357Z,10.30
2018-05-04T00:54:22.813Z,10.30
2018-05-04T00:56:52.040Z,10.30
2018-05-04T00:59:20.733Z,10.30
2018-05-04T01:01:49.601Z,10.20
2018-05-04T01:04:18.579Z,10.20
2018-05-04T01:06:47.375Z,10.10
2018-05-04T01:09:16.774Z,10.20
2018-05-04T01:11:46.157Z,10.10
2018-05-04T01:14:14.953Z,10.10
2018-05-04T01:16:43.837Z,10.00
2018-05-04T01:19:13.535Z,10.00
2018-05-04T01:21:42.377Z,10.00
2018-05-04T01:24:15.179Z,9.90
2018-05-04T01:26:44.424Z,10.00
2018-05-04T01:29:20.307Z,9.90
2018-05-04T01:31:49.216Z,9.80
2018-05-04T01:34:19.343Z,9.80
2018-05-04T01:36:48.299Z,9.80
2018-05-04T01:39:25.104Z,9.80
2018-05-04T01:41:53.838Z,9.80
2018-05-04T01:44:23.989Z,9.80
2018-05-04T01:46:54.042Z,9.80
2018-05-04T01:49:25.937Z,9.80
2018-05-04T01:51:54.723Z,9.80
2018-05-04T01:54:28.289Z,9.80
2018-05-04T01:56:57.792Z,9.70
2018-05-04T01:59:34.027Z,9.70
2018-05-04T02:02:03.050Z,9.70
2018-05-04T02:04:32.206Z,9.60
2018-05-04T02:07:00.980Z,9.70
2018-05-04T02:09:38.303Z,9.70
2018-05-04T02:12:07.065Z,9.70
2018-05-04T02:14:36.975Z,9.70
2018-05-04T02:17:06.059Z,9.70
2018-05-04T02:19:42.959Z,9.60
2018-05-04T02:22:11.778Z,9.60
2018-05-04T02:24:41.330Z,9.50
2018-05-04T02:27:10.482Z,9.50
2018-05-04T02:29:44.415Z,9.50
2018-05-04T02:32:13.178Z,9.50
2018-05-04T02:37:04.947Z,9.40
2018-05-04T02:39:33.660Z,9.40
2018-05-04T02:42:02.386Z,9.30
2018-05-04T02:44:31.580Z,9.40
2018-05-04T02:47:01.137Z,9.30
2018-05-04T02:49:29.811Z,9.30
2018-05-04T02:51:59.631Z,9.30
2018-05-04T02:54:28.312Z,9.30
2018-05-04T02:59:37.738Z,9.20
2018-05-04T03:02:06.504Z,9.30
2018-05-04T03:04:36.245Z,9.20
2018-05-04T03:07:05.004Z,9.20
2018-05-04T03:09:34.513Z,9.10
2018-05-04T03:12:04.335Z,9.10
2018-05-04T03:14:33.102Z,9.10
2018-05-04T03:17:06.597Z,9.00
2018-05-04T03:19:36.396Z,9.00
2018-05-04T03:22:09.184Z,9.00
2018-05-04T03:24:38.216Z,9.00
2018-05-04T03:27:12.494Z,9.00
2018-05-04T03:29:41.988Z,9.00
2018-05-04T03:32:19.132Z,9.00
2018-05-04T03:34:47.896Z,9.00
2018-05-04T03:37:17.105Z,9.00
2018-05-04T03:39:45.922Z,9.00
2018-05-04T03:42:18.893Z,9.00
2018-05-04T03:44:47.854Z,8.90
2018-05-04T03:47:29.114Z,9.00
2018-05-04T03:49:59.024Z,9.00
2018-05-04T03:52:28.478Z,9.00
2018-05-04T03:54:57.187Z,9.00
2018-05-04T04:00:42.572Z,9.00
2018-05-04T04:04:14.733Z,8.90
2018-05-04T04:06:43.449Z,8.80
2018-05-04T04:09:14.176Z,8.90
2018-05-04T04:11:42.968Z,8.90
2018-05-04T04:14:12.531Z,8.90
2018-05-04T04:16:41.516Z,8.90
2018-05-04T04:19:10.264Z,8.80
2018-05-04T04:21:39.037Z,8.80
2018-05-04T04:24:08.179Z,8.90
2018-05-04T04:26:37.014Z,8.90
2018-05-04T04:29:05.856Z,8.80
2018-05-04T04:31:42.869Z,8.90
2018-05-04T04:34:12.377Z,8.90
2018-05-04T04:36:42.385Z,8.90
2018-05-04T04:39:11.523Z,8.90
2018-05-04T04:41:44.919Z,8.90
2018-05-04T04:44:14.761Z,8.90
2018-05-04T04:46:46.837Z,8.80
2018-05-04T04:49:17.153Z,8.80
2018-05-04T04:51:49.697Z,8.90
2018-05-04T04:54:19.184Z,8.80
2018-05-04T04:56:55.024Z,8.80
2018-05-04T04:59:23.705Z,8.90
2018-05-04T05:01:54.497Z,8.90
2018-05-04T05:04:25.730Z,8.90
2018-05-04T05:06:58.034Z,8.90
2018-05-04T05:09:26.901Z,8.90
2018-05-04T05:12:02.976Z,8.90
2018-05-04T05:14:31.736Z,9.20
2018-05-04T05:17:02.444Z,9.30
2018-05-04T05:19:31.981Z,9.20
2018-05-04T05:22:08.539Z,9.20
2018-05-04T05:24:37.305Z,9.30
2018-05-04T05:27:07.885Z,9.30
2018-05-04T05:29:36.799Z,9.30
2018-05-04T05:32:13.292Z,9.30
2018-05-04T05:34:42.161Z,9.30
2018-05-04T05:37:14.225Z,9.40
2018-05-04T05:39:42.987Z,9.30
2018-05-04T05:42:42.985Z,9.40
2018-05-04T05:45:19.921Z,9.40
2018-05-04T05:47:48.924Z,9.40
2018-05-04T05:50:25.653Z,9.50
2018-05-04T05:52:54.457Z,9.50
2018-05-04T05:55:23.710Z,9.60
2018-05-04T05:57:53.606Z,9.70
2018-05-04T06:00:29.642Z,9.70
2018-05-04T06:02:58.463Z,9.80
2018-05-04T06:05:28.302Z,9.80
2018-05-04T06:07:57.259Z,9.90
2018-05-04T06:10:30.009Z,10.00
2018-05-04T06:12:59.184Z,10.00
2018-05-04T06:15:31.630Z,10.10
2018-05-04T06:18:01.138Z,10.30
2018-05-04T06:20:33.615Z,10.40
2018-05-04T06:23:02.517Z,10.30
2018-05-04T06:25:38.513Z,10.40
2018-05-04T06:28:07.508Z,10.50
2018-05-04T06:30:37.960Z,10.60
2018-05-04T06:33:06.775Z,10.60
2018-05-04T06:35:44.048Z,10.70
2018-05-04T06:38:12.962Z,10.70
2018-05-04T06:40:45.217Z,10.80
2018-05-04T06:43:13.982Z,10.90
2018-05-04T06:45:47.037Z,11.00
2018-05-04T06:48:16.553Z,11.10
2018-05-04T06:50:52.836Z,11.10
2018-05-04T06:53:22.685Z,11.20
2018-05-04T06:55:51.905Z,11.20
2018-05-04T06:58:21.060Z,11.20
2018-05-04T07:00:58.299Z,11.30
2018-05-04T07:03:27.070Z,11.40
2018-05-04T07:05:56.718Z,11.50
2018-05-04T07:08:26.307Z,11.50
2018-05-04T07:11:03.620Z,11.50
2018-05-04T07:13:33.134Z,11.70
2018-05-04T07:16:02.741Z,11.80
2018-05-04T07:18:32.558Z,11.80
2018-05-04T07:21:05.267Z,11.80
2018-05-04T07:23:34.009Z,11.90
2018-05-04T07:26:09.808Z,12.10
2018-05-04T07:28:38.682Z,12.10
2018-05-04T07:31:09.069Z,12.10
2018-05-04T07:33:38.937Z,12.30
2018-05-04T07:36:14.781Z,12.30
2018-05-04T07:38:43.612Z,12.40
2018-05-04T07:41:15.083Z,12.60
2018-05-04T07:43:43.896Z,12.50
2018-05-04T07:46:20.350Z,12.60
2018-05-04T07:48:49.156Z,12.70
2018-05-04T07:51:19.756Z,12.70
2018-05-04T07:53:49.713Z,12.90
2018-05-04T07:56:29.795Z,12.90
2018-05-04T07:58:58.592Z,13.00
2018-05-04T08:01:29.183Z,13.10
2018-05-04T08:03:57.976Z,13.20
2018-05-04T08:06:26.807Z,13.20
2018-05-04T08:08:56.614Z,13.40
2018-05-04T08:11:28.117Z,13.50
2018-05-04T08:13:56.883Z,13.50
2018-05-04T08:16:33.815Z,13.60
2018-05-04T08:19:02.853Z,13.70
2018-05-04T08:21:32.446Z,13.80
2018-05-04T08:24:02.492Z,14.00
2018-05-04T08:26:34.872Z,14.00
2018-05-04T08:29:03.834Z,14.10
2018-05-04T08:31:36.915Z,14.20
2018-05-04T08:34:05.751Z,14.30
2018-05-04T08:36:38.018Z,14.40
2018-05-04T08:39:07.248Z,14.50
2018-05-04T08:41:43.817Z,14.60
2018-05-04T08:44:12.617Z,14.70
2018-05-04T08:46:42.838Z,15.00
2018-05-04T08:49:11.622Z,15.00
2018-05-04T08:51:48.816Z,15.40
2018-05-04T08:54:18.732Z,15.60
2018-05-04T08:56:47.602Z,15.60
2018-05-04T08:59:16.583Z,15.90
2018-05-04T09:01:53.354Z,16.10
2018-05-04T09:04:22.308Z,16.30
2018-05-04T09:06:52.870Z,16.50
2018-05-04T09:11:55.908Z,17.10
2018-05-04T09:14:25.010Z,17.40
2018-05-04T09:16:59.163Z,17.70
2018-05-04T09:19:28.146Z,18.10
2018-05-04T09:22:00.443Z,18.40
2018-05-04T09:24:29.253Z,18.70
2018-05-04T09:27:06.129Z,19.50
2018-05-04T09:29:35.137Z,19.40
2018-05-04T09:32:05.550Z,19.90
2018-05-04T09:34:35.092Z,20.30
2018-05-04T09:37:12.316Z,20.20
2018-05-04T09:39:41.185Z,20.40
2018-05-04T09:42:10.100Z,20.60
2018-05-04T09:44:40.212Z,20.80
2018-05-04T09:49:40.736Z,21.20
2018-05-04T09:52:14.226Z,21.30
2018-05-04T09:54:43.064Z,21.40
2018-05-04T09:57:20.799Z,21.40
2018-05-04T09:59:49.801Z,21.40
2018-05-04T10:02:19.462Z,21.50
2018-05-04T10:04:49.118Z,22.10
2018-05-04T10:07:21.751Z,22.10
2018-05-04T10:09:50.683Z,22.30
2018-05-04T10:12:23.526Z,22.50
2018-05-04T10:14:53.466Z,22.70
2018-05-04T10:17:24.367Z,22.70
2018-05-04T10:19:54.032Z,22.70
2018-05-04T10:22:26.705Z,22.70
2018-05-04T10:24:55.580Z,22.60
2018-05-04T10:27:31.440Z,22.70
2018-05-04T10:30:00.717Z,22.80
2018-05-04T10:32:31.436Z,22.90
2018-05-04T10:35:00.205Z,23.10
2018-05-04T10:37:36.978Z,23.10
2018-05-04T10:40:06.584Z,23.10
2018-05-04T10:42:36.989Z,23.20
2018-05-04T10:45:06.309Z,23.10
2018-05-04T10:47:38.458Z,23.00
2018-05-04T10:50:07.324Z,23.20
2018-05-04T10:52:40.268Z,23.40
2018-05-04T10:55:09.893Z,23.60
2018-05-04T10:57:46.980Z,23.60
2018-05-04T11:00:16.185Z,23.70
2018-05-04T11:02:45.197Z,23.70
2018-05-04T11:05:14.026Z,23.50
2018-05-04T11:07:51.204Z,23.50
2018-05-04T11:10:23.688Z,23.40
2018-05-04T11:12:54.887Z,23.50
2018-05-04T11:15:24.866Z,23.80
2018-05-04T11:17:53.663Z,23.80
2018-05-04T11:20:22.471Z,24.00
2018-05-04T11:22:55.346Z,23.90
2018-05-04T11:25:24.189Z,24.00
2018-05-04T11:28:00.406Z,23.90
2018-05-04T11:30:29.505Z,23.90
2018-05-04T11:32:59.831Z,23.90
2018-05-04T11:35:28.828Z,23.80
2018-05-04T11:38:05.448Z,23.80
2018-05-04T11:40:35.199Z,23.60
2018-05-04T11:43:04.814Z,23.60
2018-05-04T11:45:33.893Z,23.50
2018-05-04T11:48:10.927Z,23.70
2018-05-04T11:50:40.812Z,24.00
2018-05-04T11:53:11.783Z,24.00
2018-05-04T11:55:40.931Z,24.10
2018-05-04T11:58:16.110Z,24.00
2018-05-04T12:00:45.323Z,24.00
2018-05-04T12:03:16.447Z,24.20
2018-05-04T12:05:45.901Z,24.20
2018-05-04T12:08:23.038Z,24.40
2018-05-04T12:10:53.097Z,24.30
2018-05-04T12:13:32.973Z,24.30
2018-05-04T12:16:02.087Z,24.60
2018-05-04T12:18:31.227Z,24.70
2018-05-04T12:21:00.267Z,24.60
2018-05-04T12:23:29.658Z,24.50
2018-05-04T12:25:58.725Z,24.60
2018-05-04T12:28:27.852Z,24.50
2018-05-04T12:30:57.210Z,24.40
2018-05-04T12:33:29.484Z,24.30
2018-05-04T12:35:58.763Z,24.20
2018-05-04T12:38:36.368Z,24.10
2018-05-04T12:41:05.940Z,23.90
2018-05-04T12:43:35.830Z,23.90
2018-05-04T12:46:04.767Z,23.90
2018-05-04T12:48:40.950Z,24.10
2018-05-04T12:51:09.796Z,23.90
2018-05-04T12:53:39.807Z,24.00
2018-05-04T12:56:09.475Z,24.20
2018-05-04T12:58:41.280Z,24.20
2018-05-04T13:01:10.885Z,24.20
2018-05-04T13:03:42.733Z,24.20
2018-05-04T13:06:11.813Z,24.20
2018-05-04T13:08:47.852Z,24.20
2018-05-04T13:11:16.830Z,24.30
2018-05-04T13:13:47.531Z,24.40
2018-05-04T13:16:17.172Z,24.30
2018-05-04T13:18:50.153Z,24.20
2018-05-04T13:21:19.325Z,24.30
2018-05-04T13:23:56.867Z,24.50
2018-05-04T13:26:25.794Z,24.50
2018-05-04T13:28:58.584Z,24.40
2018-05-04T13:31:28.303Z,24.40
2018-05-04T13:33:59.199Z,24.40
2018-05-04T13:36:28.104Z,24.50
2018-05-04T13:39:06.936Z,24.50
2018-05-04T13:41:37.087Z,24.50
2018-05-04T13:44:06.151Z,24.40
2018-05-04T13:46:35.716Z,24.30
2018-05-04T13:49:08.501Z,24.10
2018-05-04T13:51:38.618Z,24.20
2018-05-04T13:54:11.022Z,24.20
2018-05-04T13:56:40.807Z,24.30
2018-05-04T13:59:18.553Z,24.20
2018-05-04T14:01:47.659Z,24.00
2018-05-04T14:04:16.879Z,23.90
2018-05-04T14:06:46.283Z,24.00
2018-05-04T14:09:17.449Z,23.60
2018-05-04T14:11:46.495Z,23.60
2018-05-04T14:14:18.848Z,23.80
2018-05-04T14:16:48.433Z,23.90
2018-05-04T14:19:21.942Z,24.10
2018-05-04T14:21:51.897Z,24.00
2018-05-04T14:24:22.731Z,24.00
2018-05-04T14:26:51.753Z,24.10
2018-05-04T14:29:29.125Z,24.20
2018-05-04T14:31:58.712Z,24.10
2018-05-04T14:34:27.732Z,24.10
2018-05-04T14:36:57.450Z,24.00
2018-05-04T14:39:28.374Z,24.10
2018-05-04T14:41:57.263Z,24.20
2018-05-04T14:44:34.417Z,24.10
2018-05-04T14:47:03.298Z,24.00
2018-05-04T14:49:32.641Z,24.10
2018-05-04T14:52:01.819Z,24.00
2018-05-04T14:54:39.125Z,23.80
2018-05-04T14:57:09.125Z,23.50
2018-05-04T14:59:38.607Z,23.50
2018-05-04T15:02:07.511Z,23.40
2018-05-04T15:04:41.447Z,23.20
2018-05-04T15:07:10.577Z,23.20
2018-05-04T15:09:46.236Z,23.20
2018-05-04T15:12:16.089Z,23.10
2018-05-04T15:14:46.526Z,23.00
2018-05-04T15:17:15.391Z,23.00
2018-05-04T15:19:52.655Z,23.00
2018-05-04T15:22:21.591Z,22.90
2018-05-04T15:24:51.557Z,22.90
2018-05-04T15:27:20.403Z,22.80
2018-05-04T15:29:56.723Z,22.80
2018-05-04T15:32:25.989Z,22.80
2018-05-04T15:35:00.871Z,22.60
2018-05-04T15:37:31.254Z,22.70
2018-05-04T15:40:02.181Z,22.60
2018-05-04T15:42:33.663Z,22.60
2018-05-04T15:45:03.092Z,22.60
2018-05-04T15:47:33.235Z,22.60
2018-05-04T15:50:09.870Z,22.50
2018-05-04T15:52:41.084Z,22.20
2018-05-04T15:55:11.042Z,22.20
2018-05-04T15:57:41.686Z,22.10
2018-05-04T16:00:11.606Z,22.10
2018-05-04T16:02:41.295Z,21.80
2018-05-04T16:05:10.547Z,21.80
2018-05-04T16:07:40.394Z,21.70
2018-05-04T16:12:41.014Z,21.70
2018-05-04T16:15:18.151Z,21.60
2018-05-04T16:17:49.373Z,21.50
2018-05-04T16:20:20.647Z,21.40
2018-05-04T16:22:49.818Z,21.30
2018-05-04T16:25:18.989Z,21.20
2018-05-04T16:27:47.811Z,21.10
2018-05-04T16:30:21.916Z,21.10
2018-05-04T16:32:50.890Z,20.90
2018-05-04T16:35:27.638Z,20.90
2018-05-04T16:37:58.248Z,20.70
2018-05-04T16:40:27.979Z,20.60
2018-05-04T16:42:57.207Z,20.60
2018-05-04T16:45:28.790Z,20.50
2018-05-04T16:48:01.903Z,20.40
2018-05-04T16:50:31.825Z,20.30
2018-05-04T16:53:01.949Z,20.30
2018-05-04T16:55:34.148Z,20.30
2018-05-04T16:58:03.165Z,20.20
2018-05-04T17:00:35.128Z,20.20
2018-05-04T17:03:04.886Z,20.10
2018-05-04T17:05:36.844Z,20.00
2018-05-04T17:08:06.760Z,19.90
2018-05-04T17:10:38.594Z,19.90
2018-05-04T17:13:07.527Z,19.80
2018-05-04T17:15:40.650Z,19.70
2018-05-04T17:18:09.567Z,19.70
2018-05-04T17:20:47.167Z,19.60
2018-05-04T17:23:17.103Z,19.50
2018-05-04T17:25:46.065Z,19.50
2018-05-04T17:28:15.126Z,19.50
2018-05-04T17:30:51.508Z,19.40
2018-05-04T17:33:20.749Z,19.40
2018-05-04T17:35:50.811Z,19.30
2018-05-04T17:38:20.144Z,19.30
2018-05-04T17:40:52.992Z,19.10
2018-05-04T17:43:21.851Z,19.10
2018-05-04T17:45:58.060Z,19.10
2018-05-04T17:48:27.042Z,19.10
2018-05-04T17:51:03.223Z,19.10
2018-05-04T17:53:33.160Z,19.00
2018-05-04T17:56:02.853Z,18.90
2018-05-04T17:58:31.809Z,18.90
2018-05-04T18:01:04.789Z,18.80
2018-05-04T18:03:33.676Z,18.70
2018-05-04T18:06:09.804Z,18.70
2018-05-04T18:08:41.257Z,18.70
2018-05-04T18:11:13.993Z,18.60
2018-05-04T18:13:42.945Z,18.40
2018-05-04T18:16:12.539Z,18.50
2018-05-04T18:18:41.384Z,18.50
2018-05-04T18:21:18.950Z,18.40
2018-05-04T18:23:48.083Z,18.40
2018-05-04T18:26:18.141Z,18.30
2018-05-04T18:28:47.190Z,18.30
2018-05-04T18:31:25.007Z,18.30
2018-05-04T18:33:53.888Z,18.30
2018-05-04T18:36:23.696Z,18.20
2018-05-04T18:38:54.170Z,18.10
2018-05-04T18:41:25.137Z,18.10
2018-05-04T18:43:54.102Z,18.10
2018-05-04T18:46:27.126Z,18.00
2018-05-04T18:48:56.085Z,17.90
2018-05-04T18:51:28.917Z,17.90
2018-05-04T18:53:58.957Z,17.80
2018-05-04T18:56:31.580Z,17.80
2018-05-04T18:59:00.436Z,17.70
2018-05-04T19:01:34.710Z,17.60
2018-05-04T19:04:04.605Z,17.60
2018-05-04T19:06:39.521Z,17.60
2018-05-04T19:09:09.718Z,17.50
2018-05-04T19:11:40.406Z,17.40
2018-05-04T19:14:09.402Z,17.40
2018-05-04T19:16:45.991Z,17.30
2018-05-04T19:19:15.962Z,17.20
2018-05-04T19:21:45.000Z,17.20
2018-05-04T19:24:14.231Z,17.10
2018-05-04T19:26:46.601Z,17.00
2018-05-04T19:29:15.558Z,16.90
2018-05-04T19:31:48.883Z,16.90
2018-05-04T19:34:18.545Z,16.70
2018-05-04T19:36:51.279Z,16.70
2018-05-04T19:39:20.498Z,16.60
2018-05-04T19:41:52.702Z,16.70
2018-05-04T19:44:21.767Z,16.60
2018-05-04T19:46:59.173Z,16.50
2018-05-04T19:49:28.327Z,16.50
2018-05-04T19:52:00.985Z,16.40
2018-05-04T19:54:30.241Z,16.30
2018-05-04T19:57:02.164Z,16.30
2018-05-04T19:59:31.094Z,16.20
2018-05-04T20:02:08.084Z,16.20
2018-05-04T20:04:37.726Z,16.00
2018-05-04T20:07:06.769Z,16.00
2018-05-04T20:09:35.590Z,15.90
2018-05-04T20:12:12.028Z,15.80
2018-05-04T20:14:41.764Z,15.90
2018-05-04T20:17:13.749Z,15.90
2018-05-04T20:19:42.805Z,15.80
2018-05-04T20:22:14.955Z,15.80
2018-05-04T20:24:46.037Z,15.70
2018-05-04T20:27:18.597Z,15.60
2018-05-04T20:29:47.537Z,15.60
2018-05-04T20:32:19.220Z,15.60
2018-05-04T20:34:48.901Z,15.50
2018-05-04T20:37:21.533Z,15.50
2018-05-04T20:39:50.948Z,15.40
2018-05-04T20:42:27.139Z,15.40
2018-05-04T20:44:56.089Z,15.40
2018-05-04T20:47:25.909Z,15.20
2018-05-04T20:49:55.062Z,15.20
2018-05-04T20:52:28.156Z,15.20
2018-05-04T20:54:57.147Z,15.20
2018-05-04T20:57:29.478Z,15.10
2018-05-04T20:59:58.790Z,15.20
2018-05-04T21:02:31.615Z,15.10
2018-05-04T21:05:01.426Z,15.10
2018-05-04T21:07:34.383Z,15.10
2018-05-04T21:10:03.256Z,15.10
2018-05-04T21:12:35.739Z,15.10
2018-05-04T21:15:04.905Z,15.10
2018-05-04T21:17:37.254Z,15.10
2018-05-04T21:20:07.152Z,15.10
2018-05-04T21:22:39.998Z,15.00
2018-05-04T21:25:08.813Z,15.00
2018-05-04T21:27:41.472Z,15.00
2018-05-04T21:30:10.713Z,15.00
2018-05-04T21:32:44.443Z,14.90
2018-05-04T21:35:15.634Z,14.90
2018-05-04T21:37:45.633Z,14.90
2018-05-04T21:40:14.578Z,14.80
2018-05-04T21:42:51.521Z,14.80
2018-05-04T21:45:20.425Z,14.70
2018-05-04T21:47:51.094Z,14.70
2018-05-04T21:50:20.160Z,14.60
2018-05-04T21:52:53.170Z,14.50
2018-05-04T21:55:22.887Z,14.50
2018-05-04T21:57:59.104Z,14.50
2018-05-04T22:00:29.562Z,14.50
2018-05-04T22:02:58.626Z,14.40
2018-05-04T22:05:28.800Z,14.30
2018-05-04T22:08:00.972Z,14.30
2018-05-04T22:10:29.861Z,14.40
2018-05-04T22:13:03.081Z,14.30
2018-05-04T22:15:32.330Z,14.30
2018-05-04T22:18:14.439Z,14.40
2018-05-04T22:20:44.804Z,14.30
2018-05-04T22:23:14.401Z,14.40
2018-05-04T22:25:43.423Z,14.40
2018-05-04T22:28:13.992Z,14.30
2018-05-04T22:30:42.863Z,14.30
2018-05-04T22:33:13.922Z,14.20
2018-05-04T22:35:42.868Z,14.20
2018-05-04T22:38:15.702Z,14.10
2018-05-04T22:40:44.803Z,14.10
2018-05-04T22:43:21.385Z,14.10
2018-05-04T22:45:50.297Z,14.10
2018-05-04T22:48:19.835Z,14.00
2018-05-04T22:50:48.660Z,14.00
2018-05-04T22:53:22.046Z,14.00
2018-05-04T22:55:51.376Z,14.00
2018-05-04T22:58:23.541Z,14.00
2018-05-04T23:00:52.679Z,14.00
2018-05-04T23:03:28.763Z,14.00
2018-05-04T23:05:57.786Z,14.00
2018-05-04T23:08:27.981Z,13.90
2018-05-04T23:10:56.755Z,13.90
2018-05-04T23:13:34.684Z,13.90
2018-05-04T23:16:03.843Z,13.90
2018-05-04T23:18:33.482Z,13.80
2018-05-04T23:21:02.334Z,13.70
2018-05-04T23:23:34.617Z,13.70
2018-05-04T23:26:03.533Z,13.70
2018-05-04T23:28:40.148Z,13.70
2018-05-04T23:31:10.016Z,13.60
2018-05-04T23:33:38.931Z,13.60
2018-05-04T23:36:07.782Z,13.60
2018-05-04T23:38:41.261Z,13.60
2018-05-04T23:41:10.250Z,13.60
2018-05-04T23:43:46.373Z,13.60
2018-05-04T23:46:15.376Z,13.60
2018-05-04T23:48:45.687Z,13.50
2018-05-04T23:51:14.586Z,13.50
2018-05-04T23:53:51.914Z,13.50
2018-05-04T23:56:20.701Z,13.50
2018-05-04T23:58:50.500Z,13.50
